aviador You're here:

KAIB Decoded Metar

in
Report Time2017-07-23 06:35:00
UTC Time2017-07-23 06:50:11
Flight Rules vfr VFR
Wind120° at 07 kt
W.Decomp.*RWY 11: 6.9 kt HW 1.2 kt RCW
RWY 05: 2.4 kt HW 6.6 kt RCW
W.Rank120° ranks 3
Current wind is above 120° avg. (6.1)
Visibility9999 m
Phenomena:N/A
Clouds:N/A
Expected CloudBase > 4,000 ft AGL from Temp-Dew spread
CeilingNone
Temp19°C
Dew Point09°C (52% RH)
AAT16.2°C
QNH1025 hPa
Raw Report
KAIB 230635Z AUTO 12007KT 10SM CLR 19/09 A3027 RMK AO2=

Extra information for KAIB:More info

Social comments